Aérodrome :







RETROUVEZ-NOUS SUR...

 
LOGIN :

S'inscrire | Disclaimer

   EN    FR    IT 

 









Légende :    VFR   VFR Marginal   IFR   IFR Intensif   IFR Très Intensif
Visi : 
Plafond : 
>= 8 km
>= 3000ft
5 à 8 km
1000 à 3000 ft
1500m à 5 km
500 à 1000 ft
800 à 1500m
200 à 500 ft
< 800m
< 200 ft
Symboles :   Orages  Brouillard  Fortes neiges  Fortes précipitations  Vent > 20 kt






- Altitude de l'aérodrome : 29 ft
- Code IATA : PSE


TJPS - Mercedita

METAR N/A
TAF TJPS
Valide du 27 à 12h jusqu'au 28 à 12h UTC


271138Z 2712/2812 10009KT P6SM FEW020 SCT030 SCT045
FM271400 15009KT P6SM FEW030 SCT040
FM271700 16014G20KT P6SM VCSH FEW030 SCT040
FM272300 10007KT P6SM FEW030 SCT040 SCT080
FM280200 06005KT P6SM FEW030 FEW040 AMD NOT SKED TIL 280300
FIR TJZS / Amérique du Nord



MET'MAP, la Météo Aéronautique d'un coup d'oeil ! - Copyright ORBIFLY Décembre 2007 - Disclaimer

ORBIFLY MET'MAP TEAM :

Programmation & Développement : Alexandra Zaïnal
Sur une idée originale de : Baudouin d'Aumeries
Assistance à la programmation : Marc-Olivier Méhu
Soutien technique & logistique : Manuel Goepfert

Contact : metmap@orbifly.com




SOURCES & CREDITS :

   NOAA